Time;durP1;ratioP1;P1;durP2;ratioP2;P2;SDS_P1;SDS_P2;PMS_P1;PMS_P2;Temp;Humidity;BMP_temperature;BMP_pressure;BME280_temperature;BME280_humidity;BME280_pressure;Samples;Min_cycle;Max_cycle;Signal;HPM_P1;HPM_P2
2022/12/05 00:00:14;;;;;;;92.82;21.77;;;3.80;99.90;;;;;;5116329;22;20298;-85
2022/12/05 00:02:40;;;;;;;92.28;21.58;;;3.80;99.90;;;;;;5042909;28;20160;-85
2022/12/05 00:05:06;;;;;;;88.17;21.20;;;3.80;99.90;;;;;;5043552;28;20566;-84
2022/12/05 00:07:31;;;;;;;91.10;22.50;;;3.70;99.90;;;;;;5043850;28;20202;-85
2022/12/05 00:09:57;;;;;;;96.73;21.60;;;3.70;99.90;;;;;;5042235;28;20283;-84
2022/12/05 00:12:23;;;;;;;92.60;23.20;;;3.70;99.90;;;;;;5042633;28;20609;-84
2022/12/05 00:14:49;;;;;;;92.10;22.33;;;3.70;99.90;;;;;;5041863;28;20166;-84
2022/12/05 00:17:14;;;;;;;98.13;22.03;;;3.70;99.90;;;;;;5043275;28;20249;-84
2022/12/05 00:19:40;;;;;;;98.33;22.80;;;3.70;99.90;;;;;;5043001;28;20169;-84
2022/12/05 00:22:05;;;;;;;94.67;22.30;;;3.70;99.90;;;;;;5043205;28;20229;-85
2022/12/05 00:24:31;;;;;;;98.30;24.77;;;3.70;99.90;;;;;;5043593;28;20169;-85
2022/12/05 00:26:57;;;;;;;98.20;23.63;;;3.70;99.90;;;;;;5042846;28;20172;-84
2022/12/05 00:29:22;;;;;;;97.10;22.30;;;3.70;99.90;;;;;;5042785;28;20219;-84
2022/12/05 00:31:48;;;;;;;97.80;21.17;;;3.70;99.90;;;;;;5043056;28;20185;-84
2022/12/05 00:34:14;;;;;;;94.00;21.43;;;3.70;99.90;;;;;;5042838;28;20197;-84
2022/12/05 00:36:40;;;;;;;96.67;24.00;;;3.70;99.90;;;;;;5042667;28;20404;-84
2022/12/05 00:39:11;;;;;;;103.60;24.73;;;3.70;99.90;;;;;;5043346;28;20166;-84
2022/12/05 00:41:41;;;;;;;93.70;21.42;;;3.60;99.90;;;;;;5043069;28;20261;-85
2022/12/05 00:44:07;;;;;;;98.43;22.75;;;3.70;99.90;;;;;;5042838;28;20173;-85
2022/12/05 00:46:34;;;;;;;99.32;25.55;;;3.70;99.90;;;;;;5042766;28;20231;-85
2022/12/05 00:49:01;;;;;;;92.78;21.85;;;3.80;99.90;;;;;;5042814;28;20173;-84
2022/12/05 00:51:31;;;;;;;96.65;24.88;;;3.70;99.90;;;;;;5041134;28;20216;-85
2022/12/05 00:53:59;;;;;;;101.70;24.25;;;3.70;99.90;;;;;;5042346;28;20161;-85
2022/12/05 00:56:26;;;;;;;96.95;23.80;;;3.80;99.90;;;;;;5042346;28;20192;-85
2022/12/05 00:58:53;;;;;;;101.22;22.10;;;3.80;99.90;;;;;;5041950;28;20647;-87
2022/12/05 01:01:24;;;;;;;100.68;23.42;;;3.70;99.90;;;;;;5042131;28;20205;-85
2022/12/05 01:03:53;;;;;;;99.80;25.00;;;3.70;99.90;;;;;;5042614;28;20201;-86
2022/12/05 01:06:19;;;;;;;97.95;26.60;;;3.80;99.90;;;;;;5042299;28;20201;-85
2022/12/05 01:08:45;;;;;;;104.95;23.35;;;3.80;99.90;;;;;;5042199;28;20169;-85
2022/12/05 01:11:14;;;;;;;97.50;24.05;;;3.70;99.90;;;;;;5040482;28;20214;-85
2022/12/05 01:13:40;;;;;;;96.85;21.98;;;3.70;99.90;;;;;;5042869;28;20588;-85
2022/12/05 01:16:11;;;;;;;103.40;22.77;;;3.70;99.90;;;;;;5042038;28;20193;-85
2022/12/05 01:18:37;;;;;;;97.22;22.55;;;3.70;99.90;;;;;;5041797;28;20452;-85
2022/12/05 01:21:04;;;;;;;99.90;24.33;;;3.70;99.90;;;;;;5042384;28;20235;-85
2022/12/05 01:23:30;;;;;;;96.88;24.10;;;3.70;99.90;;;;;;5041949;28;20161;-85
2022/12/05 01:25:55;;;;;;;101.43;25.00;;;3.70;99.90;;;;;;5041412;28;20524;-85
2022/12/05 01:28:21;;;;;;;92.90;22.57;;;3.80;99.90;;;;;;5042154;28;20197;-85
2022/12/05 01:30:48;;;;;;;103.17;23.07;;;3.80;99.90;;;;;;5040691;28;20223;-85
2022/12/05 01:33:15;;;;;;;98.35;21.90;;;3.80;99.90;;;;;;5041807;28;20169;-85
2022/12/05 01:35:41;;;;;;;102.07;24.20;;;3.70;99.90;;;;;;5042392;28;20173;-85
2022/12/05 01:38:09;;;;;;;99.55;22.95;;;3.70;99.90;;;;;;5043270;28;20173;-85
2022/12/05 01:40:35;;;;;;;101.30;22.40;;;3.80;99.90;;;;;;5042099;28;20181;-85
2022/12/05 01:43:01;;;;;;;97.53;20.65;;;3.70;99.90;;;;;;5041971;28;20176;-85
2022/12/05 01:45:39;;;;;;;95.75;23.25;;;3.80;99.90;;;;;;5041931;28;20180;-85
2022/12/05 01:48:22;;;;;;;89.97;20.48;;;3.80;99.90;;;;;;5041821;28;20196;-85
2022/12/05 01:50:49;;;;;;;91.22;21.25;;;3.80;99.90;;;;;;5041882;28;20196;-85
2022/12/05 01:53:16;;;;;;;97.50;23.20;;;3.80;99.90;;;;;;5042545;28;20527;-85
2022/12/05 01:55:43;;;;;;;94.82;22.85;;;3.80;99.90;;;;;;5041652;28;20231;-85
2022/12/05 01:58:09;;;;;;;93.22;23.67;;;3.80;99.90;;;;;;5041601;28;20169;-86
2022/12/05 02:00:35;;;;;;;96.63;22.33;;;3.80;99.90;;;;;;5041381;28;20229;-85
2022/12/05 02:03:08;;;;;;;89.50;20.40;;;3.80;99.90;;;;;;5041707;28;20169;-87
2022/12/05 02:05:36;;;;;;;97.90;24.05;;;3.80;99.90;;;;;;5040783;28;20217;-85
2022/12/05 02:08:07;;;;;;;98.32;24.77;;;3.90;99.90;;;;;;5041925;28;20666;-86
2022/12/05 02:10:49;;;;;;;95.88;24.70;;;3.80;99.90;;;;;;5040900;28;20212;-87
2022/12/05 02:13:24;;;;;;;92.07;20.35;;;3.80;99.90;;;;;;5042489;28;20151;-87
2022/12/05 02:16:07;;;;;;;100.75;24.45;;;3.80;99.90;;;;;;5041411;28;20184;-87
2022/12/05 02:19:10;;;;;;;90.50;22.17;;;3.70;99.90;;;;;;5042817;28;20193;-87
2022/12/05 02:21:45;;;;;;;93.60;24.15;;;3.70;99.90;;;;;;5041821;28;20187;-86
2022/12/05 02:24:28;;;;;;;94.00;23.17;;;3.70;99.90;;;;;;5043611;28;20235;-87
2022/12/05 02:27:19;;;;;;;93.00;24.77;;;3.70;99.90;;;;;;5041820;28;20158;-86
2022/12/05 02:30:03;;;;;;;98.85;26.30;;;3.70;99.90;;;;;;5043163;28;20240;-86
2022/12/05 02:32:32;;;;;;;95.65;27.45;;;3.60;99.90;;;;;;5042419;28;20157;-87
2022/12/05 02:35:26;;;;;;;95.53;25.23;;;3.70;99.90;;;;;;5042625;28;20192;-87
2022/12/05 02:38:21;;;;;;;93.05;24.30;;;3.60;99.90;;;;;;5044650;28;20205;-86
2022/12/05 02:41:20;;;;;;;92.45;20.80;;;3.50;99.90;;;;;;5045121;28;20201;-87
2022/12/05 02:43:59;;;;;;;94.22;20.00;;;3.50;99.90;;;;;;5037424;28;20273;-86
2022/12/05 02:46:28;;;;;;;94.68;22.55;;;3.50;99.90;;;;;;5044416;28;20168;-86
2022/12/05 02:48:59;;;;;;;95.93;23.98;;;3.50;99.90;;;;;;5045506;28;20158;-86
2022/12/05 02:51:29;;;;;;;90.22;21.20;;;3.50;99.90;;;;;;5045926;28;20276;-87
2022/12/05 02:53:59;;;;;;;92.03;23.42;;;3.40;99.90;;;;;;5047206;28;20157;-86
2022/12/05 02:56:25;;;;;;;94.13;23.08;;;3.40;99.90;;;;;;5044764;28;20185;-86
2022/12/05 02:58:54;;;;;;;95.85;23.85;;;3.50;99.90;;;;;;5045470;28;20161;-87
2022/12/05 03:01:30;;;;;;;90.90;21.00;;;3.40;99.90;;;;;;5044602;28;20299;-86
2022/12/05 03:03:59;;;;;;;96.20;22.73;;;3.50;99.90;;;;;;5044851;28;20167;-86
2022/12/05 03:06:34;;;;;;;90.10;22.15;;;3.40;99.90;;;;;;5044061;28;20161;-86
2022/12/05 03:09:24;;;;;;;97.00;24.27;;;3.40;99.90;;;;;;5044766;28;20168;-86
2022/12/05 03:12:04;;;;;;;91.07;23.00;;;3.30;99.90;;;;;;5044861;28;20210;-87
2022/12/05 03:14:38;;;;;;;90.45;22.80;;;3.40;99.90;;;;;;5044672;28;20153;-86
2022/12/05 03:17:09;;;;;;;96.40;24.05;;;3.30;99.90;;;;;;5044860;28;20187;-88
2022/12/05 03:19:43;;;;;;;95.82;23.25;;;3.20;99.90;;;;;;5045301;28;20280;-86
2022/12/05 03:22:23;;;;;;;92.78;22.02;;;3.20;99.90;;;;;;5043794;28;20165;-86
2022/12/05 03:24:49;;;;;;;92.88;25.30;;;3.20;99.90;;;;;;5043298;28;20149;-86
2022/12/05 03:27:43;;;;;;;98.25;26.13;;;3.20;99.90;;;;;;5043076;28;20200;-86
2022/12/05 03:30:15;;;;;;;91.90;24.13;;;3.20;99.90;;;;;;5039940;28;20205;-86
2022/12/05 03:33:04;;;;;;;98.80;23.27;;;3.30;99.90;;;;;;5044098;28;20172;-87
2022/12/05 03:35:33;;;;;;;98.43;25.52;;;3.30;99.90;;;;;;5039569;28;20173;-86
2022/12/05 03:38:25;;;;;;;93.72;26.98;;;3.30;99.90;;;;;;5042528;28;20161;-87
2022/12/05 03:41:28;;;;;;;91.05;24.77;;;3.30;99.90;;;;;;5042608;28;20236;-86
2022/12/05 03:44:23;;;;;;;89.68;22.48;;;3.20;99.90;;;;;;5042698;28;20177;-86
2022/12/05 03:46:57;;;;;;;94.40;24.10;;;3.10;99.90;;;;;;5044101;28;20146;-86
2022/12/05 03:49:36;;;;;;;92.50;23.65;;;3.10;99.90;;;;;;5043157;28;20180;-86
2022/12/05 03:52:32;;;;;;;102.78;24.75;;;3.10;99.90;;;;;;5045314;28;20146;-86
2022/12/05 03:55:05;;;;;;;92.95;21.88;;;3.10;99.90;;;;;;5041100;28;20181;-86
2022/12/05 03:57:42;;;;;;;95.32;22.17;;;3.00;99.90;;;;;;5043752;28;20153;-86
2022/12/05 04:00:10;;;;;;;92.93;21.02;;;3.00;99.90;;;;;;5044168;28;20185;-86
2022/12/05 04:02:46;;;;;;;88.20;18.52;;;3.00;99.90;;;;;;5045778;28;20173;-86
2022/12/05 04:05:20;;;;;;;89.40;18.27;;;2.90;99.90;;;;;;5044885;28;20154;-86
2022/12/05 04:07:48;;;;;;;94.55;20.20;;;2.80;99.90;;;;;;5045100;28;20161;-86
2022/12/05 04:10:22;;;;;;;93.10;19.35;;;2.80;99.90;;;;;;5044868;28;20197;-86
2022/12/05 04:12:51;;;;;;;92.93;21.80;;;2.70;99.90;;;;;;5044781;28;20149;-86
2022/12/05 04:15:23;;;;;;;90.25;20.90;;;2.70;99.90;;;;;;5045882;28;20224;-86
2022/12/05 04:17:56;;;;;;;95.68;21.05;;;2.70;99.90;;;;;;5044722;28;20173;-86
2022/12/05 04:23:27;;;;;;;88.00;21.17;;;2.70;99.90;;;;;;5045083;28;20172;-86
2022/12/05 04:26:30;;;;;;;98.95;23.70;;;2.80;99.90;;;;;;5043116;28;20177;-86
2022/12/05 04:29:10;;;;;;;96.15;21.33;;;2.80;99.90;;;;;;5042061;28;20177;-86
2022/12/05 04:31:48;;;;;;;94.43;22.75;;;2.70;99.90;;;;;;5042088;28;20216;-86
2022/12/05 04:34:16;;;;;;;94.45;22.52;;;2.60;99.90;;;;;;5045764;28;20157;-86
2022/12/05 04:36:49;;;;;;;89.65;19.77;;;2.60;99.90;;;;;;5045830;28;20600;-86
2022/12/05 04:39:29;;;;;;;92.65;22.38;;;2.70;99.90;;;;;;5045451;28;20154;-86
2022/12/05 04:42:05;;;;;;;94.03;23.67;;;2.70;99.90;;;;;;5045939;28;20153;-86
2022/12/05 04:44:44;;;;;;;90.32;27.05;;;2.90;99.90;;;;;;5045732;28;20184;-86
2022/12/05 04:47:13;;;;;;;95.47;25.63;;;2.90;99.90;;;;;;5044590;28;20207;-86
2022/12/05 04:49:41;;;;;;;92.55;25.67;;;2.90;99.90;;;;;;5044768;28;20191;-86
2022/12/05 04:52:11;;;;;;;92.40;26.27;;;2.80;99.90;;;;;;5043526;28;20165;-86
2022/12/05 04:54:43;;;;;;;90.85;22.58;;;2.70;99.90;;;;;;5045096;28;20630;-86
2022/12/05 04:57:56;;;;;;;93.03;20.52;;;2.60;99.90;;;;;;5044726;28;20168;-84
2022/12/05 05:00:22;;;;;;;91.28;20.48;;;2.60;99.90;;;;;;5043274;28;20577;-86
2022/12/05 05:03:10;;;;;;;87.30;22.40;;;2.60;99.90;;;;;;5045323;28;20176;-86
2022/12/05 05:05:37;;;;;;;87.85;19.92;;;2.50;99.90;;;;;;5044697;28;20203;-86
2022/12/05 05:08:03;;;;;;;91.78;20.40;;;2.50;99.90;;;;;;5043758;28;20169;-86
2022/12/05 05:10:41;;;;;;;87.63;19.80;;;2.70;99.90;;;;;;5044557;28;20223;-86
2022/12/05 05:13:07;;;;;;;95.82;22.75;;;2.70;99.90;;;;;;5044981;28;20384;-86
2022/12/05 05:15:33;;;;;;;91.70;20.07;;;2.70;99.90;;;;;;5043529;28;20539;-86
2022/12/05 05:17:58;;;;;;;93.97;23.07;;;2.80;99.90;;;;;;5043761;28;20169;-86
2022/12/05 05:20:25;;;;;;;90.20;20.13;;;2.90;99.90;;;;;;5043480;28;20208;-86
2022/12/05 05:22:53;;;;;;;85.95;20.58;;;2.90;99.90;;;;;;5044378;28;20157;-86
2022/12/05 05:25:19;;;;;;;93.03;22.98;;;2.80;99.90;;;;;;5044462;28;20169;-86
2022/12/05 05:27:53;;;;;;;90.45;18.67;;;2.70;99.90;;;;;;5044479;28;20170;-86
2022/12/05 05:30:20;;;;;;;91.03;19.63;;;2.60;99.90;;;;;;5044203;28;20205;-86
2022/12/05 05:32:46;;;;;;;98.18;19.90;;;2.60;99.90;;;;;;5043450;28;20169;-86
2022/12/05 05:35:12;;;;;;;90.87;18.37;;;2.50;99.90;;;;;;5044410;28;20510;-86
2022/12/05 05:37:38;;;;;;;85.93;18.48;;;2.50;99.90;;;;;;5044467;28;20808;-86
2022/12/05 05:40:06;;;;;;;90.07;18.65;;;2.40;99.90;;;;;;5043197;28;20193;-86
2022/12/05 05:42:32;;;;;;;88.38;17.75;;;2.50;99.90;;;;;;5044455;28;20181;-86
2022/12/05 05:44:57;;;;;;;92.57;21.23;;;2.50;99.90;;;;;;5043273;28;20176;-86
2022/12/05 05:47:23;;;;;;;92.10;19.93;;;2.40;99.90;;;;;;5044099;28;20172;-86
2022/12/05 05:49:49;;;;;;;96.70;19.63;;;2.40;99.90;;;;;;5044366;28;20204;-86
2022/12/05 05:52:14;;;;;;;90.77;19.10;;;2.40;99.90;;;;;;5042927;28;20187;-85
2022/12/05 05:54:40;;;;;;;91.70;19.93;;;2.40;99.90;;;;;;5045696;28;20208;-85
2022/12/05 05:57:06;;;;;;;89.50;18.47;;;2.40;99.90;;;;;;5045224;28;20165;-86
2022/12/05 05:59:33;;;;;;;89.63;17.83;;;2.50;99.90;;;;;;5045560;28;20165;-85
2022/12/05 06:05:49;;;;;;;94.32;21.63;;;2.50;99.90;;;;;;5036391;28;20192;-85
2022/12/05 06:09:17;;;;;;;87.97;19.42;;;2.50;99.90;;;;;;5035955;28;20646;-86
2022/12/05 06:15:02;;;;;;;89.47;18.35;;;2.50;99.90;;;;;;5068055;22;20232;-85
2022/12/05 06:21:10;;;;;;;86.82;20.35;;;2.50;99.90;;;;;;5018669;28;20686;-85
2022/12/05 06:27:41;;;;;;;89.22;20.50;;;2.40;99.90;;;;;;5036175;28;20176;-86
2022/12/05 06:34:18;;;;;;;88.22;17.85;;;2.40;99.90;;;;;;5000671;28;20210;-85
2022/12/05 06:40:22;;;;;;;89.25;19.08;;;2.50;99.90;;;;;;5140427;22;20948;-85
2022/12/05 06:43:10;;;;;;;86.65;18.85;;;2.50;99.90;;;;;;5039649;28;20200;-85
2022/12/05 06:46:24;;;;;;;;;;;;;;;;;;;;;
2022/12/05 06:49:34;;;;;;;89.50;19.10;;;2.40;99.90;;;;;;5041609;28;20215;-85
2022/12/05 06:52:28;;;;;;;88.38;18.42;;;2.40;99.90;;;;;;4983960;28;20279;-84
2022/12/05 06:55:09;;;;;;;92.10;17.52;;;2.40;99.90;;;;;;4981666;28;20179;-85
2022/12/05 06:57:41;;;;;;;86.47;18.60;;;2.40;99.90;;;;;;4982085;28;20179;-84
2022/12/05 07:03:19;;;;;;;94.07;19.60;;;2.30;99.90;;;;;;5020663;28;20230;-85
2022/12/05 07:06:06;;;;;;;90.53;18.13;;;2.30;99.90;;;;;;5017613;28;20174;-85
2022/12/05 07:08:52;;;;;;;;;;;;;;;;;;;;;
2022/12/05 07:28:21;;;;;;;89.30;18.75;;;2.40;99.90;;;;;;4656857;22;20228;-86
2022/12/05 07:34:32;;;;;;;;;;;;;;;;;;;;;
2022/12/05 07:38:00;;;;;;;;;;;;;;;;;;;;;
2022/12/05 07:58:30;;;;;;;91.20;17.25;;;2.60;99.90;;;;;;5079273;28;20210;-86
2022/12/05 08:02:14;;;;;;;;;;;;;;;;;;;;;
2022/12/05 08:05:27;;;;;;;;;;;;;;;;;;;;;
2022/12/05 08:12:43;;;;;;;;;;;;;;;;;;;;;
2022/12/05 09:27:31;;;;;;;96.63;17.88;;;3.20;99.90;;;;;;4995590;28;20190;-86
2022/12/05 09:33:58;;;;;;;88.32;16.90;;;3.20;99.90;;;;;;5053466;28;20743;-86
2022/12/05 09:37:03;;;;;;;86.82;17.17;;;3.30;99.90;;;;;;5037852;28;20218;-86
2022/12/05 09:42:39;;;;;;;89.00;19.75;;;3.40;99.90;;;;;;5059153;22;20229;-86
2022/12/05 09:45:31;;;;;;;85.05;20.20;;;3.40;99.90;;;;;;5036366;28;20661;-85
2022/12/05 09:48:35;;;;;;;82.50;17.83;;;3.50;99.90;;;;;;5035306;28;20161;-85
2022/12/05 09:52:22;;;;;;;82.85;17.95;;;3.50;99.90;;;;;;5035052;28;20295;-85
2022/12/05 09:54:39;;;;;;;86.53;18.98;;;3.50;99.90;;;;;;5022359;28;20184;-85
2022/12/05 09:58:13;;;;;;;84.85;18.45;;;3.60;99.90;;;;;;5036005;28;20165;-85
2022/12/05 10:02:06;;;;;;;;;;;;;;;;;;;;;
2022/12/05 10:05:31;;;;;;;79.53;18.27;;;3.70;99.90;;;;;;5028092;28;20181;-85
2022/12/05 10:08:22;;;;;;;88.25;21.45;;;3.60;99.90;;;;;;5029124;28;20185;-86
2022/12/05 10:11:35;;;;;;;84.68;20.60;;;3.70;99.90;;;;;;5024880;28;20578;-86
2022/12/05 10:22:24;;;;;;;;;;;;;;;;;;;;;
2022/12/05 10:38:07;;;;;;;;;;;;;;;;;;;;;
2022/12/05 10:52:15;;;;;;;83.35;23.17;;;4.10;99.90;;;;;;4916444;29;20215;-87
2022/12/05 10:59:18;;;;;;;79.18;23.85;;;4.10;99.90;;;;;;4898449;29;20217;-87
2022/12/05 11:45:38;;;;;;;;;;;;;;;;;;;;;
2022/12/05 11:48:44;;;;;;;80.63;22.60;;;4.10;99.90;;;;;;4902053;29;20185;-88
2022/12/05 12:01:50;;;;;;;83.95;25.38;;;4.20;99.90;;;;;;5149459;22;20253;-85
2022/12/05 12:04:22;;;;;;;88.78;26.75;;;4.10;99.90;;;;;;5037868;28;20176;-85
2022/12/05 12:06:57;;;;;;;83.03;23.63;;;4.20;99.90;;;;;;5046185;28;20150;-85
2022/12/05 12:09:47;;;;;;;82.43;24.23;;;4.20;99.90;;;;;;5043133;28;20172;-84
2022/12/05 12:12:54;;;;;;;83.53;27.23;;;4.20;99.90;;;;;;5024256;28;20174;-85
2022/12/05 12:15:38;;;;;;;83.15;27.42;;;4.20;99.90;;;;;;4968996;28;20720;-85
2022/12/05 12:18:34;;;;;;;100.25;30.10;;;4.20;99.90;;;;;;5019431;28;20200;-85
2022/12/05 12:21:11;;;;;;;84.35;24.83;;;4.10;99.90;;;;;;5025930;28;20215;-85
2022/12/05 12:23:42;;;;;;;84.63;23.17;;;4.10;99.90;;;;;;5024858;28;20165;-85
2022/12/05 12:26:43;;;;;;;85.63;27.77;;;4.10;99.90;;;;;;5024949;28;20182;-85
2022/12/05 12:29:31;;;;;;;85.30;27.50;;;4.10;99.90;;;;;;5013077;28;20189;-85
2022/12/05 12:32:23;;;;;;;82.15;18.38;;;4.00;99.90;;;;;;5024123;28;20189;-85
2022/12/05 12:35:10;;;;;;;83.75;18.40;;;3.90;99.90;;;;;;5024738;28;20154;-85
2022/12/05 12:38:11;;;;;;;80.05;16.52;;;3.80;99.90;;;;;;5026160;28;20244;-85
2022/12/05 12:40:45;;;;;;;89.38;17.17;;;3.90;99.90;;;;;;4968387;28;20673;-85
2022/12/05 12:43:47;;;;;;;84.13;16.95;;;4.00;99.90;;;;;;5019034;28;20192;-85
2022/12/05 12:46:31;;;;;;;81.97;17.58;;;4.00;99.90;;;;;;5025603;28;20161;-85
2022/12/05 12:49:19;;;;;;;83.07;19.90;;;4.10;99.90;;;;;;5025764;28;20192;-85
2022/12/05 12:51:52;;;;;;;83.07;19.40;;;4.20;99.90;;;;;;5025677;28;20197;-85
2022/12/05 12:54:26;;;;;;;86.00;20.27;;;4.20;99.90;;;;;;5026148;28;20146;-84
2022/12/05 12:57:03;;;;;;;83.82;21.17;;;4.30;99.90;;;;;;5024013;28;20185;-85
2022/12/05 12:59:59;;;;;;;88.57;26.08;;;4.40;99.90;;;;;;5025310;28;20168;-85
2022/12/05 13:02:52;;;;;;;87.38;27.27;;;4.40;99.90;;;;;;5024875;28;20264;-85
2022/12/05 13:05:37;;;;;;;85.13;25.13;;;4.30;99.90;;;;;;5025954;28;20154;-85
2022/12/05 13:08:05;;;;;;;84.78;24.60;;;4.20;99.90;;;;;;5026314;28;20176;-85
2022/12/05 13:10:34;;;;;;;89.28;28.60;;;4.20;99.90;;;;;;5026438;28;20563;-85
2022/12/05 13:13:03;;;;;;;83.47;25.33;;;4.30;99.90;;;;;;5025166;28;20193;-85
2022/12/05 13:15:34;;;;;;;85.90;26.25;;;4.30;99.90;;;;;;5025216;28;20526;-85
2022/12/05 13:18:02;;;;;;;90.03;27.05;;;4.20;99.90;;;;;;5026145;28;20189;-85
2022/12/05 13:20:33;;;;;;;84.95;26.27;;;4.20;99.90;;;;;;5024364;28;20194;-85
2022/12/05 13:23:01;;;;;;;85.03;26.33;;;4.30;99.90;;;;;;5023292;28;20526;-85
2022/12/05 13:25:32;;;;;;;85.13;26.58;;;4.20;99.90;;;;;;5025631;28;20190;-85
2022/12/05 13:28:01;;;;;;;87.85;25.17;;;4.20;99.90;;;;;;5025550;28;20159;-85
2022/12/05 13:30:27;;;;;;;82.18;27.73;;;4.20;99.90;;;;;;5023924;28;20206;-85
2022/12/05 13:33:00;;;;;;;84.50;25.70;;;4.20;99.90;;;;;;5023054;28;20162;-86
2022/12/05 13:43:56;;;;;;;80.28;21.08;;;4.30;99.90;;;;;;5020474;28;20157;-84
2022/12/05 13:46:26;;;;;;;81.30;23.75;;;4.20;99.90;;;;;;5022225;28;20166;-86
2022/12/05 13:49:02;;;;;;;80.78;27.17;;;4.10;99.90;;;;;;5024878;28;20168;-84
2022/12/05 13:51:38;;;;;;;82.63;24.98;;;4.10;99.90;;;;;;5021865;28;20256;-84
2022/12/05 13:54:21;;;;;;;83.75;24.67;;;4.20;99.90;;;;;;5021702;28;20153;-84
2022/12/05 13:57:01;;;;;;;80.70;20.85;;;4.20;99.90;;;;;;5027410;28;20154;-84
2022/12/05 13:59:58;;;;;;;83.40;23.52;;;4.20;99.90;;;;;;5022103;28;20662;-85
2022/12/05 14:02:43;;;;;;;80.88;21.63;;;4.20;99.90;;;;;;5022380;28;20193;-84
2022/12/05 14:05:17;;;;;;;82.30;20.10;;;4.20;99.90;;;;;;5021977;28;20166;-84
2022/12/05 14:07:44;;;;;;;77.57;19.88;;;4.20;99.90;;;;;;5020268;28;20176;-85
2022/12/05 14:10:27;;;;;;;81.85;21.33;;;4.10;99.90;;;;;;5020784;28;20189;-84
2022/12/05 14:12:55;;;;;;;80.40;20.00;;;4.20;99.90;;;;;;5020312;28;20158;-84
2022/12/05 14:15:33;;;;;;;82.22;22.25;;;4.20;99.90;;;;;;5021016;28;20230;-85
2022/12/05 14:18:09;;;;;;;79.70;22.45;;;4.10;99.90;;;;;;5019870;28;20709;-85
2022/12/05 14:21:11;;;;;;;82.90;23.15;;;4.00;99.90;;;;;;5020756;28;20243;-85
2022/12/05 14:23:44;;;;;;;81.00;22.58;;;4.00;99.90;;;;;;5020102;28;20153;-84
2022/12/05 14:26:46;;;;;;;80.75;21.88;;;4.00;99.90;;;;;;5019242;28;20162;-84
2022/12/05 14:29:30;;;;;;;79.57;22.65;;;3.90;99.90;;;;;;5020890;28;20150;-85
2022/12/05 14:32:13;;;;;;;82.95;26.15;;;3.90;99.90;;;;;;5020242;28;20178;-85
2022/12/05 14:34:55;;;;;;;82.63;27.17;;;3.90;99.90;;;;;;5022584;28;20161;-84
2022/12/05 14:37:26;;;;;;;86.80;26.10;;;3.90;99.90;;;;;;5024780;28;20185;-84
2022/12/05 14:39:55;;;;;;;81.13;25.23;;;3.90;99.90;;;;;;5023427;28;20189;-85
2022/12/05 14:42:23;;;;;;;83.03;25.63;;;3.90;99.90;;;;;;5023110;28;20161;-85
2022/12/05 14:44:50;;;;;;;81.18;24.45;;;3.90;99.90;;;;;;5023555;28;20212;-85
2022/12/05 14:47:26;;;;;;;83.25;24.58;;;3.90;99.90;;;;;;5023397;28;20169;-85
2022/12/05 14:50:00;;;;;;;83.93;24.73;;;3.90;99.90;;;;;;5023141;28;20188;-84
2022/12/05 14:52:28;;;;;;;82.53;25.88;;;3.80;99.90;;;;;;5022786;28;20204;-84
2022/12/05 14:55:01;;;;;;;82.93;25.02;;;3.80;99.90;;;;;;5021892;28;20168;-84
2022/12/05 14:57:27;;;;;;;80.60;23.88;;;3.80;99.90;;;;;;5022064;28;20241;-85
2022/12/05 14:59:58;;;;;;;80.13;24.25;;;3.80;99.90;;;;;;5023073;28;20186;-85
2022/12/05 15:02:30;;;;;;;83.15;26.73;;;3.80;99.90;;;;;;5022040;28;20182;-84
2022/12/05 15:05:16;;;;;;;86.55;26.45;;;3.90;99.90;;;;;;5023256;28;20169;-86
2022/12/05 15:07:43;;;;;;;87.45;29.13;;;3.90;99.90;;;;;;5022094;28;20523;-85
2022/12/05 15:10:11;;;;;;;84.07;27.65;;;3.90;99.90;;;;;;5023342;28;20186;-85
2022/12/05 15:12:47;;;;;;;84.93;26.02;;;3.90;99.90;;;;;;5023635;28;20204;-84
2022/12/05 15:15:35;;;;;;;83.22;25.17;;;3.90;99.90;;;;;;5023487;28;20515;-84
2022/12/05 15:18:13;;;;;;;83.70;25.73;;;3.80;99.90;;;;;;5022358;28;20177;-85
2022/12/05 15:21:06;;;;;;;82.55;25.48;;;3.80;99.90;;;;;;5025749;28;20182;-86
2022/12/05 15:23:39;;;;;;;85.43;25.63;;;3.80;99.90;;;;;;5025883;28;20173;-86
2022/12/05 15:26:26;;;;;;;83.43;23.67;;;3.70;99.90;;;;;;5025578;28;20170;-86
2022/12/05 15:29:03;;;;;;;82.07;25.25;;;3.70;99.90;;;;;;5007429;28;20185;-85
2022/12/05 15:31:48;;;;;;;87.22;27.85;;;3.70;99.90;;;;;;5025398;28;20197;-85
2022/12/05 15:34:35;;;;;;;83.28;25.35;;;3.70;99.90;;;;;;5025763;28;20165;-86
2022/12/05 15:37:31;;;;;;;82.85;25.23;;;3.80;99.90;;;;;;5023029;28;20162;-84
2022/12/05 15:39:59;;;;;;;86.20;27.17;;;3.80;99.90;;;;;;5018040;28;20198;-84
2022/12/05 15:42:29;;;;;;;84.85;26.17;;;3.70;99.90;;;;;;5024280;28;20158;-85
2022/12/05 15:45:13;;;;;;;82.97;24.77;;;3.70;99.90;;;;;;5023310;28;20151;-85
2022/12/05 15:47:49;;;;;;;87.63;30.17;;;3.70;99.90;;;;;;5023791;28;20197;-84
2022/12/05 15:50:22;;;;;;;85.20;27.40;;;3.70;99.90;;;;;;5023358;28;20194;-85
2022/12/05 15:53:08;;;;;;;85.95;23.77;;;3.70;99.90;;;;;;5023837;28;20170;-86
2022/12/05 15:55:44;;;;;;;87.85;24.90;;;3.70;99.90;;;;;;5026319;28;20146;-86
2022/12/05 15:58:22;;;;;;;87.07;24.17;;;3.70;99.90;;;;;;5026331;28;20168;-86
2022/12/05 16:00:57;;;;;;;86.60;28.33;;;3.70;99.90;;;;;;5025903;28;20683;-86
2022/12/05 16:03:32;;;;;;;81.05;25.15;;;3.70;99.90;;;;;;5024737;28;20173;-86
2022/12/05 16:06:04;;;;;;;84.90;22.00;;;3.70;99.90;;;;;;5025113;28;20732;-86
2022/12/05 16:08:40;;;;;;;84.15;24.35;;;3.60;99.90;;;;;;5024920;28;20161;-86
2022/12/05 16:11:10;;;;;;;85.43;24.08;;;3.60;99.90;;;;;;5024535;28;20196;-86
2022/12/05 16:13:45;;;;;;;77.95;21.40;;;3.50;99.90;;;;;;5027074;28;20171;-85
2022/12/05 16:16:19;;;;;;;79.70;22.75;;;3.60;99.90;;;;;;5025139;28;20555;-86
2022/12/05 16:19:03;;;;;;;79.97;22.10;;;3.60;99.90;;;;;;5027194;28;20611;-86
2022/12/05 16:21:36;;;;;;;84.25;22.75;;;3.60;99.90;;;;;;5025118;28;20197;-86
2022/12/05 16:24:20;;;;;;;80.18;20.27;;;3.50;99.90;;;;;;5024093;28;20252;-86
2022/12/05 16:27:02;;;;;;;84.05;22.85;;;3.40;99.90;;;;;;5023586;28;20162;-86
2022/12/05 16:29:31;;;;;;;81.50;22.60;;;3.40;99.90;;;;;;5025819;28;20154;-86
2022/12/05 16:31:59;;;;;;;85.57;25.45;;;3.50;99.90;;;;;;5023874;28;20240;-86
2022/12/05 16:34:27;;;;;;;83.95;25.40;;;3.50;99.90;;;;;;5024652;28;20174;-85
2022/12/05 16:36:55;;;;;;;84.13;24.55;;;3.40;99.90;;;;;;5024836;28;20170;-85
2022/12/05 16:39:23;;;;;;;79.47;24.65;;;3.50;99.90;;;;;;5025383;28;20172;-86
2022/12/05 16:41:49;;;;;;;82.53;24.92;;;3.50;99.90;;;;;;5024951;28;20285;-86
2022/12/05 16:44:27;;;;;;;86.70;25.88;;;3.40;99.90;;;;;;5026749;28;20533;-86
2022/12/05 16:46:54;;;;;;;83.07;24.40;;;3.40;99.90;;;;;;5026222;28;20238;-86
2022/12/05 16:49:39;;;;;;;84.90;23.40;;;3.50;99.90;;;;;;5025110;28;20162;-86
2022/12/05 16:52:08;;;;;;;85.85;27.83;;;3.50;99.90;;;;;;5024415;28;20209;-86
2022/12/05 16:54:35;;;;;;;87.47;27.50;;;3.50;99.90;;;;;;5022565;28;20240;-86
2022/12/05 16:57:01;;;;;;;86.13;27.25;;;3.50;99.90;;;;;;5026801;28;20173;-86
2022/12/05 16:59:36;;;;;;;79.82;24.38;;;3.50;99.90;;;;;;5024801;28;20170;-86
2022/12/05 17:02:06;;;;;;;80.57;23.35;;;3.50;99.90;;;;;;5023248;28;20185;-86
2022/12/05 17:04:31;;;;;;;82.65;25.08;;;3.50;99.90;;;;;;5025083;28;20185;-86
2022/12/05 17:06:57;;;;;;;83.93;24.80;;;3.40;99.90;;;;;;5025884;28;20216;-86
2022/12/05 17:09:23;;;;;;;84.30;26.58;;;3.40;99.90;;;;;;5022945;28;20409;-86
2022/12/05 17:11:52;;;;;;;85.70;26.83;;;3.40;99.90;;;;;;5023901;28;20194;-86
2022/12/05 17:14:18;;;;;;;80.93;23.17;;;3.40;99.90;;;;;;5022873;28;20198;-86
2022/12/05 17:16:44;;;;;;;81.45;23.52;;;3.40;99.90;;;;;;5024739;28;20173;-86
2022/12/05 17:19:13;;;;;;;81.13;20.88;;;3.40;99.90;;;;;;5024742;28;20173;-86
2022/12/05 17:21:40;;;;;;;84.60;21.98;;;3.30;99.90;;;;;;5024034;28;20189;-86
2022/12/05 17:24:11;;;;;;;81.65;21.70;;;3.20;99.90;;;;;;5023529;28;20227;-86
2022/12/05 17:26:37;;;;;;;76.88;18.70;;;3.20;99.90;;;;;;5020761;28;20205;-85
2022/12/05 17:29:03;;;;;;;80.38;20.80;;;3.20;99.90;;;;;;5022975;28;20173;-86
2022/12/05 17:31:29;;;;;;;79.57;22.10;;;3.20;99.90;;;;;;5024651;28;20186;-86
2022/12/05 17:33:55;;;;;;;81.60;21.70;;;3.20;99.90;;;;;;5023545;28;20173;-87
2022/12/05 17:36:21;;;;;;;77.27;18.40;;;3.20;99.90;;;;;;5024525;28;20169;-86
2022/12/05 17:38:47;;;;;;;80.28;20.95;;;3.30;99.90;;;;;;5023833;28;20169;-86
2022/12/05 17:41:20;;;;;;;86.05;20.92;;;3.30;99.90;;;;;;5021332;28;20781;-87
2022/12/05 17:43:46;;;;;;;80.43;18.13;;;3.20;99.90;;;;;;5022659;28;20166;-84
2022/12/05 17:46:20;;;;;;;80.68;19.73;;;3.20;99.90;;;;;;5022782;28;20162;-85